Aérodrome :
LOGIN :

S'inscrire | Disclaimer

   EN    FR    IT 

 










Légende :    VFR   VFR Marginal   IFR   IFR Intensif   IFR Très Intensif
Visi : 
Plafond : 
>= 8 km
>= 3000ft
5 à 8 km
1000 à 3000 ft
1500m à 5 km
500 à 1000 ft
800 à 1500m
200 à 500 ft
< 800m
< 200 ft
Symboles :   Orages  Brouillard  Fortes neiges  Fortes précipitations  Vent > 20 kt
SIGMETs :   Divers  Orages  Givrage  Turbulence  Onde Orograph.  Cendres Volcan.







- Altitude de l'aérodrome : 1090 ft
- Code IATA : CFE
- Voir les cartes d'approche


LFLC - Clermont-Ferrand Auvergne

DERNIER METAR :
  • 200130Z AUTO 00000KT 4200 1900 BR BKN004 OVC011 06/05 Q1025 TEMPO 0400 FG VV///

METARs EXPIRÉS :
  • 200100Z AUTO 06003KT 3100 BR BKN002 OVC006 06/06 Q1025 TEMPO 0400 FG VV///
  • 200030Z AUTO VRB01KT 3900 BR OVC002 06/06 Q1025 TEMPO 0400 FG VV///
  • 200000Z AUTO VRB01KT 3600 BR BKN002 OVC006 06/06 Q1025 BECMG 0800 BCFG
  • 192330Z AUTO VRB02KT 3700 BR OVC004 06/06 Q1025 BECMG 0800 BCFG
  • 192300Z AUTO 33001KT 2500 BR OVC005 06/06 Q1025 BECMG 0800 BCFG

TAF AMD TAF LFLC
Valide du 20 à 00h jusqu'au 20 à 21h UTC


200038Z 2000/2021 VRB02KT 4000 BR SCT002 OVC006
TEMPO 2000/2008 2000 BR OVC002
PROB40
TEMPO 2002/2008 0400 FG VV///
BECMG 2009/2012 9999 NSW SCT008
BECMG 2012/2014 CAVOK
ATIS : +33 4 73 62 74 38
Pas de NOTAMs connus pour ce terrain.
1 SIGMET publié pour la FIR Marseille (LFMM) :
 
Turbulence forte
LFMM SIGMET 3 VALID 192200/200200 LFPW
LFMM MARSEILLE FIR/UIR SEV TURB FCST WI N4130 E00530 - N4415 E00330 - N4500 E00415 - N4130 E00645 SFC/FL060 STNR WKN=



MET'MAP, la Météo Aéronautique d'un coup d'oeil ! - Copyright ORBIFLY Décembre 2007 - Disclaimer

ORBIFLY MET'MAP TEAM :

Programmation & Développement : Alexandra Zaïnal
Conception & Développement : Baudouin d'Aumeries
Co-Programmation & Développement : Marc-Olivier Méhu
Soutien technique & logistique : Manuel Goepfert

Contact : metmap@orbifly.com




SOURCES & CREDITS :

   NOAA